Campbell Foss — WDC7754 — position and weather

sailwx.info

Track history (hours):
 
Tides and Currents Weather Stations Pressure Air Temp Water Temp Dewpoint Dewpoint Depression Visibility Wind Speed Wind Dir Waves Ship Positions

Campbell Foss

Owner: Foss Maritime Co., Seattle, WA. More information available from US FCC via Universal Licensing System and Coast Guard Vessel Documentation Center.

Last reported at 2018-Jan-19 02:03 UTC. Time now 2018-Jan-21 18:16 UTC.
Position N 33°46' W 118°13'.

Length 23 m; draft 16 m.

Type: Tug. MMSI: 367076360.

Date/timePositionNaut miles runAvg speedWind from/ knotsBaromVisibWave heightAir tempDewpointWater temp
2018-Jan-19 02:03N 33°46' W 118°13'0 0.2
2018-Jan-19 01:00N 33°46' W 118°13'0 0.0
2018-Jan-19 00:30N 33°46' W 118°13'2 1.7
2018-Jan-18 23:16N 33°44' W 118°11'4 2.1
2018-Jan-18 21:18N 33°43' W 118°16'1 5.0
2018-Jan-18 21:00N 33°45' W 118°16'1 0.4
2018-Jan-18 19:05N 33°45' W 118°16'1 5.4
2018-Jan-18 18:58N 33°46' W 118°15'1 3.1
2018-Jan-18 18:30N 33°46' W 118°13'0 0.6
2018-Jan-18 17:56N 33°46' W 118°13'0 0.0
2018-Jan-18 17:30N 33°46' W 118°13'0 0.2
2018-Jan-18 14:20N 33°45' W 118°13'0 1.2
2018-Jan-18 13:56N 33°46' W 118°13'0 0.0
2018-Jan-18 13:25N 33°46' W 118°13'2 0.7
2018-Jan-18 11:00N 33°44' W 118°13'2 0.3
2018-Jan-18 05:30N 33°46' W 118°13'0 0.0
2018-Jan-18 04:54N 33°46' W 118°13'0 0.0
2018-Jan-18 04:30N 33°46' W 118°13'0 0.0
2018-Jan-18 04:00N 33°46' W 118°13'  
2018-Jan-12 07:19N 33°43' W 118°16'3 8.0
2018-Jan-12 06:59N 33°43' W 118°13'3 2.9
2018-Jan-12 06:06N 33°46' W 118°13'0 2.0
2018-Jan-12 05:58N 33°46' W 118°13'0 0.0
2018-Jan-12 05:31N 33°46' W 118°13'0 0.0
2018-Jan-12 05:00N 33°46' W 118°13'0 0.0
2018-Jan-12 04:29N 33°46' W 118°13'  
Track history (hours):
 
Tides and Currents Weather Stations Pressure Air Temp Water Temp Dewpoint Dewpoint Depression Visibility Wind Speed Wind Dir Waves Ship Positions

Campbell Foss

Owner: Foss Maritime Co., Seattle, WA. More information available from US FCC via Universal Licensing System and Coast Guard Vessel Documentation Center.

Last reported at 2018-Jan-19 02:03 UTC. Time now 2018-Jan-21 18:16 UTC.
Position N 33°46' W 118°13'.

Length 23 m; draft 16 m.

Type: Tug. MMSI: 367076360.

Date/timePositionNaut miles runAvg speedWind from/ knotsBaromVisibWave heightAir tempDewpointWater temp
2018-Jan-19 02:03N 33°46' W 118°13'0 0.2
2018-Jan-19 01:00N 33°46' W 118°13'0 0.0
2018-Jan-19 00:30N 33°46' W 118°13'2 1.7
2018-Jan-18 23:16N 33°44' W 118°11'4 2.1
2018-Jan-18 21:18N 33°43' W 118°16'1 5.0
2018-Jan-18 21:00N 33°45' W 118°16'1 0.4
2018-Jan-18 19:05N 33°45' W 118°16'1 5.4
2018-Jan-18 18:58N 33°46' W 118°15'1 3.1
2018-Jan-18 18:30N 33°46' W 118°13'0 0.6
2018-Jan-18 17:56N 33°46' W 118°13'0 0.0
2018-Jan-18 17:30N 33°46' W 118°13'0 0.2
2018-Jan-18 14:20N 33°45' W 118°13'0 1.2
2018-Jan-18 13:56N 33°46' W 118°13'0 0.0
2018-Jan-18 13:25N 33°46' W 118°13'2 0.7
2018-Jan-18 11:00N 33°44' W 118°13'2 0.3
2018-Jan-18 05:30N 33°46' W 118°13'0 0.0
2018-Jan-18 04:54N 33°46' W 118°13'0 0.0
2018-Jan-18 04:30N 33°46' W 118°13'0 0.0
2018-Jan-18 04:00N 33°46' W 118°13'  
2018-Jan-12 07:19N 33°43' W 118°16'3 8.0
2018-Jan-12 06:59N 33°43' W 118°13'3 2.9
2018-Jan-12 06:06N 33°46' W 118°13'0 2.0
2018-Jan-12 05:58N 33°46' W 118°13'0 0.0
2018-Jan-12 05:31N 33°46' W 118°13'0 0.0
2018-Jan-12 05:00N 33°46' W 118°13'0 0.0
2018-Jan-12 04:29N 33°46' W 118°13'  

Dump ship's entire track history